sensor_id;sensor_type;location;lat;lon;timestamp;temperature;humidity
35541;DHT22;21650;48.840;9.162;2023-07-13T00:02:00;20.20;98.30
35541;DHT22;21650;48.840;9.162;2023-07-13T00:04:26;20.10;98.30
35541;DHT22;21650;48.840;9.162;2023-07-13T00:06:52;20.00;98.30
35541;DHT22;21650;48.840;9.162;2023-07-13T00:09:19;20.00;98.40
35541;DHT22;21650;48.840;9.162;2023-07-13T00:11:45;20.00;98.10
35541;DHT22;21650;48.840;9.162;2023-07-13T00:14:13;19.90;98.20
35541;DHT22;21650;48.840;9.162;2023-07-13T00:16:39;19.80;98.20
35541;DHT22;21650;48.840;9.162;2023-07-13T00:19:10;19.80;98.20
35541;DHT22;21650;48.840;9.162;2023-07-13T00:21:35;19.80;98.00
35541;DHT22;21650;48.840;9.162;2023-07-13T00:24:01;19.70;98.20
35541;DHT22;21650;48.840;9.162;2023-07-13T00:26:28;19.70;98.20
35541;DHT22;21650;48.840;9.162;2023-07-13T00:28:53;19.60;98.10
35541;DHT22;21650;48.840;9.162;2023-07-13T00:31:19;19.60;98.20
35541;DHT22;21650;48.840;9.162;2023-07-13T00:33:45;19.60;98.30
35541;DHT22;21650;48.840;9.162;2023-07-13T00:36:11;19.50;98.30
35541;DHT22;21650;48.840;9.162;2023-07-13T00:38:37;19.50;98.30
35541;DHT22;21650;48.840;9.162;2023-07-13T00:41:04;19.50;98.30
35541;DHT22;21650;48.840;9.162;2023-07-13T00:43:30;19.50;98.00
35541;DHT22;21650;48.840;9.162;2023-07-13T00:48:27;19.40;98.00
35541;DHT22;21650;48.840;9.162;2023-07-13T00:50:56;19.40;98.10
35541;DHT22;21650;48.840;9.162;2023-07-13T00:53:25;19.40;98.10
35541;DHT22;21650;48.840;9.162;2023-07-13T00:55:51;19.40;98.00
35541;DHT22;21650;48.840;9.162;2023-07-13T00:58:19;19.40;98.20
35541;DHT22;21650;48.840;9.162;2023-07-13T01:00:46;19.40;98.20
35541;DHT22;21650;48.840;9.162;2023-07-13T01:03:12;19.40;97.90
35541;DHT22;21650;48.840;9.162;2023-07-13T01:05:38;19.40;97.80
35541;DHT22;21650;48.840;9.162;2023-07-13T01:08:04;19.40;98.20
35541;DHT22;21650;48.840;9.162;2023-07-13T01:10:31;19.40;98.10
35541;DHT22;21650;48.840;9.162;2023-07-13T01:13:08;19.40;97.80
35541;DHT22;21650;48.840;9.162;2023-07-13T01:15:41;19.30;98.40
35541;DHT22;21650;48.840;9.162;2023-07-13T01:18:09;19.40;98.90
35541;DHT22;21650;48.840;9.162;2023-07-13T01:20:36;19.40;99.20
35541;DHT22;21650;48.840;9.162;2023-07-13T01:23:07;19.40;98.40
35541;DHT22;21650;48.840;9.162;2023-07-13T01:25:34;19.40;99.00
35541;DHT22;21650;48.840;9.162;2023-07-13T01:28:01;19.30;98.10
35541;DHT22;21650;48.840;9.162;2023-07-13T01:30:27;19.10;98.00
35541;DHT22;21650;48.840;9.162;2023-07-13T01:32:52;19.10;98.30
35541;DHT22;21650;48.840;9.162;2023-07-13T01:35:18;19.00;98.20
35541;DHT22;21650;48.840;9.162;2023-07-13T01:37:43;18.90;98.30
35541;DHT22;21650;48.840;9.162;2023-07-13T01:40:11;18.90;98.70
35541;DHT22;21650;48.840;9.162;2023-07-13T01:42:38;18.80;98.80
35541;DHT22;21650;48.840;9.162;2023-07-13T01:45:04;18.80;98.70
35541;DHT22;21650;48.840;9.162;2023-07-13T01:47:30;18.80;98.80
35541;DHT22;21650;48.840;9.162;2023-07-13T01:49:57;18.80;98.90
35541;DHT22;21650;48.840;9.162;2023-07-13T01:52:22;18.80;98.80
35541;DHT22;21650;48.840;9.162;2023-07-13T01:54:48;18.70;99.00
35541;DHT22;21650;48.840;9.162;2023-07-13T01:57:14;18.60;99.10
35541;DHT22;21650;48.840;9.162;2023-07-13T01:59:39;18.60;99.00
35541;DHT22;21650;48.840;9.162;2023-07-13T02:02:05;18.70;98.70
35541;DHT22;21650;48.840;9.162;2023-07-13T02:04:31;18.70;98.70
35541;DHT22;21650;48.840;9.162;2023-07-13T02:06:57;18.70;98.70
35541;DHT22;21650;48.840;9.162;2023-07-13T02:09:22;18.70;99.30
35541;DHT22;21650;48.840;9.162;2023-07-13T02:11:48;18.60;98.40
35541;DHT22;21650;48.840;9.162;2023-07-13T02:14:14;18.60;98.50
35541;DHT22;21650;48.840;9.162;2023-07-13T02:16:41;18.50;99.10
35541;DHT22;21650;48.840;9.162;2023-07-13T02:19:07;18.60;99.90
35541;DHT22;21650;48.840;9.162;2023-07-13T02:21:33;18.60;99.20
35541;DHT22;21650;48.840;9.162;2023-07-13T02:23:58;18.60;99.60
35541;DHT22;21650;48.840;9.162;2023-07-13T02:26:25;18.70;99.90
35541;DHT22;21650;48.840;9.162;2023-07-13T02:28:51;18.70;99.90
35541;DHT22;21650;48.840;9.162;2023-07-13T02:31:16;18.60;99.90
35541;DHT22;21650;48.840;9.162;2023-07-13T02:33:42;18.70;99.90
35541;DHT22;21650;48.840;9.162;2023-07-13T02:36:09;18.80;99.90
35541;DHT22;21650;48.840;9.162;2023-07-13T02:38:35;18.70;99.90
35541;DHT22;21650;48.840;9.162;2023-07-13T02:41:05;18.70;99.90
35541;DHT22;21650;48.840;9.162;2023-07-13T02:43:31;18.60;99.90
35541;DHT22;21650;48.840;9.162;2023-07-13T02:45:58;18.60;99.90
35541;DHT22;21650;48.840;9.162;2023-07-13T02:48:26;18.60;99.90
35541;DHT22;21650;48.840;9.162;2023-07-13T02:50:51;18.60;99.90
35541;DHT22;21650;48.840;9.162;2023-07-13T02:53:17;18.60;99.90
35541;DHT22;21650;48.840;9.162;2023-07-13T02:55:42;18.60;99.90
35541;DHT22;21650;48.840;9.162;2023-07-13T02:58:12;18.50;99.90
35541;DHT22;21650;48.840;9.162;2023-07-13T03:00:45;18.50;99.90
35541;DHT22;21650;48.840;9.162;2023-07-13T03:03:12;18.50;99.90
35541;DHT22;21650;48.840;9.162;2023-07-13T03:05:41;18.50;99.90
35541;DHT22;21650;48.840;9.162;2023-07-13T03:08:07;18.50;99.90
35541;DHT22;21650;48.840;9.162;2023-07-13T03:10:33;18.50;99.90
35541;DHT22;21650;48.840;9.162;2023-07-13T03:12:59;18.50;99.90
35541;DHT22;21650;48.840;9.162;2023-07-13T03:15:24;18.50;99.90
35541;DHT22;21650;48.840;9.162;2023-07-13T03:17:50;18.50;99.90
35541;DHT22;21650;48.840;9.162;2023-07-13T03:20:16;18.50;99.90
35541;DHT22;21650;48.840;9.162;2023-07-13T03:22:42;18.50;99.90
35541;DHT22;21650;48.840;9.162;2023-07-13T03:25:08;18.60;99.90
35541;DHT22;21650;48.840;9.162;2023-07-13T03:27:33;18.60;99.90
35541;DHT22;21650;48.840;9.162;2023-07-13T03:29:59;18.60;99.90
35541;DHT22;21650;48.840;9.162;2023-07-13T03:32:24;18.60;99.90
35541;DHT22;21650;48.840;9.162;2023-07-13T03:34:50;18.70;99.90
35541;DHT22;21650;48.840;9.162;2023-07-13T03:37:16;18.80;99.90
35541;DHT22;21650;48.840;9.162;2023-07-13T03:39:41;18.70;99.90
35541;DHT22;21650;48.840;9.162;2023-07-13T03:42:07;18.80;99.90
35541;DHT22;21650;48.840;9.162;2023-07-13T03:44:33;18.80;99.90
35541;DHT22;21650;48.840;9.162;2023-07-13T03:46:58;18.70;99.90
35541;DHT22;21650;48.840;9.162;2023-07-13T03:49:24;18.80;99.90
35541;DHT22;21650;48.840;9.162;2023-07-13T03:51:49;18.80;99.90
35541;DHT22;21650;48.840;9.162;2023-07-13T03:54:15;18.80;99.90
35541;DHT22;21650;48.840;9.162;2023-07-13T03:56:41;18.60;99.90
35541;DHT22;21650;48.840;9.162;2023-07-13T03:59:06;18.60;99.90
35541;DHT22;21650;48.840;9.162;2023-07-13T04:01:32;18.50;99.90
35541;DHT22;21650;48.840;9.162;2023-07-13T04:03:57;18.40;99.90
35541;DHT22;21650;48.840;9.162;2023-07-13T04:06:27;18.40;99.90
35541;DHT22;21650;48.840;9.162;2023-07-13T04:08:56;18.40;99.90
35541;DHT22;21650;48.840;9.162;2023-07-13T04:11:25;18.30;99.90
35541;DHT22;21650;48.840;9.162;2023-07-13T04:13:51;18.20;99.90
35541;DHT22;21650;48.840;9.162;2023-07-13T04:16:18;18.20;99.90
35541;DHT22;21650;48.840;9.162;2023-07-13T04:18:44;18.10;99.90
35541;DHT22;21650;48.840;9.162;2023-07-13T04:21:10;18.20;99.90
35541;DHT22;21650;48.840;9.162;2023-07-13T04:23:38;18.20;99.90
35541;DHT22;21650;48.840;9.162;2023-07-13T04:26:04;18.20;99.90
35541;DHT22;21650;48.840;9.162;2023-07-13T04:28:30;18.20;99.90
35541;DHT22;21650;48.840;9.162;2023-07-13T04:30:55;18.20;99.90
35541;DHT22;21650;48.840;9.162;2023-07-13T04:33:21;18.20;99.90
35541;DHT22;21650;48.840;9.162;2023-07-13T04:35:51;18.20;99.90
35541;DHT22;21650;48.840;9.162;2023-07-13T04:38:27;18.20;99.90
35541;DHT22;21650;48.840;9.162;2023-07-13T04:40:56;18.10;99.90
35541;DHT22;21650;48.840;9.162;2023-07-13T04:43:23;18.00;99.90
35541;DHT22;21650;48.840;9.162;2023-07-13T04:45:50;18.00;99.90
35541;DHT22;21650;48.840;9.162;2023-07-13T04:48:16;18.00;99.90
35541;DHT22;21650;48.840;9.162;2023-07-13T04:50:42;18.00;99.90
35541;DHT22;21650;48.840;9.162;2023-07-13T04:53:09;18.00;99.90
35541;DHT22;21650;48.840;9.162;2023-07-13T04:55:36;17.90;99.90
35541;DHT22;21650;48.840;9.162;2023-07-13T04:58:01;17.90;99.90
35541;DHT22;21650;48.840;9.162;2023-07-13T05:00:28;17.90;99.90
35541;DHT22;21650;48.840;9.162;2023-07-13T05:02:55;17.90;99.90
35541;DHT22;21650;48.840;9.162;2023-07-13T05:05:22;18.00;99.90
35541;DHT22;21650;48.840;9.162;2023-07-13T05:07:48;18.00;99.90
35541;DHT22;21650;48.840;9.162;2023-07-13T05:10:14;18.20;99.90
35541;DHT22;21650;48.840;9.162;2023-07-13T05:12:39;18.40;99.90
35541;DHT22;21650;48.840;9.162;2023-07-13T05:15:05;18.60;99.90
35541;DHT22;21650;48.840;9.162;2023-07-13T05:17:31;18.70;99.90
35541;DHT22;21650;48.840;9.162;2023-07-13T05:19:57;18.80;99.90
35541;DHT22;21650;48.840;9.162;2023-07-13T05:22:22;18.80;99.90
35541;DHT22;21650;48.840;9.162;2023-07-13T05:24:48;18.80;99.90
35541;DHT22;21650;48.840;9.162;2023-07-13T05:27:14;18.80;99.90
35541;DHT22;21650;48.840;9.162;2023-07-13T05:29:39;18.70;99.90
35541;DHT22;21650;48.840;9.162;2023-07-13T05:32:05;18.70;99.90
35541;DHT22;21650;48.840;9.162;2023-07-13T05:34:31;18.60;99.90
35541;DHT22;21650;48.840;9.162;2023-07-13T05:36:56;18.60;99.90
35541;DHT22;21650;48.840;9.162;2023-07-13T05:39:22;18.50;99.90
35541;DHT22;21650;48.840;9.162;2023-07-13T05:41:48;18.40;99.90
35541;DHT22;21650;48.840;9.162;2023-07-13T05:44:13;18.40;99.90
35541;DHT22;21650;48.840;9.162;2023-07-13T05:46:39;18.40;99.90
35541;DHT22;21650;48.840;9.162;2023-07-13T05:49:05;18.40;99.90
35541;DHT22;21650;48.840;9.162;2023-07-13T05:51:30;18.40;99.90
35541;DHT22;21650;48.840;9.162;2023-07-13T05:53:56;18.50;99.90
35541;DHT22;21650;48.840;9.162;2023-07-13T05:56:21;18.50;99.90
35541;DHT22;21650;48.840;9.162;2023-07-13T05:58:48;18.50;99.90
35541;DHT22;21650;48.840;9.162;2023-07-13T06:01:15;18.60;99.90
35541;DHT22;21650;48.840;9.162;2023-07-13T06:03:41;18.60;99.90
35541;DHT22;21650;48.840;9.162;2023-07-13T06:06:09;18.60;99.90
35541;DHT22;21650;48.840;9.162;2023-07-13T06:08:35;18.80;99.90
35541;DHT22;21650;48.840;9.162;2023-07-13T06:11:21;19.00;99.90
35541;DHT22;21650;48.840;9.162;2023-07-13T06:13:47;19.10;99.90
35541;DHT22;21650;48.840;9.162;2023-07-13T06:16:14;19.10;99.90
35541;DHT22;21650;48.840;9.162;2023-07-13T06:18:40;19.20;99.70
35541;DHT22;21650;48.840;9.162;2023-07-13T06:21:18;19.30;99.50
35541;DHT22;21650;48.840;9.162;2023-07-13T06:23:44;19.40;99.00
35541;DHT22;21650;48.840;9.162;2023-07-13T06:26:10;19.50;98.50
35541;DHT22;21650;48.840;9.162;2023-07-13T06:28:36;19.60;99.60
35541;DHT22;21650;48.840;9.162;2023-07-13T06:31:05;19.60;98.00
35541;DHT22;21650;48.840;9.162;2023-07-13T06:33:32;19.40;97.30
35541;DHT22;21650;48.840;9.162;2023-07-13T06:35:57;19.30;98.00
35541;DHT22;21650;48.840;9.162;2023-07-13T06:38:23;19.30;98.00
35541;DHT22;21650;48.840;9.162;2023-07-13T06:40:48;19.40;98.70
35541;DHT22;21650;48.840;9.162;2023-07-13T06:43:14;19.50;97.20
35541;DHT22;21650;48.840;9.162;2023-07-13T06:45:44;19.60;98.10
35541;DHT22;21650;48.840;9.162;2023-07-13T06:48:15;19.70;97.50
35541;DHT22;21650;48.840;9.162;2023-07-13T06:50:42;19.90;97.10
35541;DHT22;21650;48.840;9.162;2023-07-13T06:53:08;20.00;97.80
35541;DHT22;21650;48.840;9.162;2023-07-13T06:55:34;19.90;96.20
35541;DHT22;21650;48.840;9.162;2023-07-13T06:57:59;20.00;96.00
35541;DHT22;21650;48.840;9.162;2023-07-13T07:00:25;20.30;96.50
35541;DHT22;21650;48.840;9.162;2023-07-13T07:02:51;20.30;95.60
35541;DHT22;21650;48.840;9.162;2023-07-13T07:05:17;20.20;95.90
35541;DHT22;21650;48.840;9.162;2023-07-13T07:07:42;20.30;95.40
35541;DHT22;21650;48.840;9.162;2023-07-13T07:10:08;20.30;95.00
35541;DHT22;21650;48.840;9.162;2023-07-13T07:12:34;20.30;95.30
35541;DHT22;21650;48.840;9.162;2023-07-13T07:14:59;20.40;95.10
35541;DHT22;21650;48.840;9.162;2023-07-13T07:17:25;20.40;95.20
35541;DHT22;21650;48.840;9.162;2023-07-13T07:19:52;20.60;95.30
35541;DHT22;21650;48.840;9.162;2023-07-13T07:22:20;20.80;95.00
35541;DHT22;21650;48.840;9.162;2023-07-13T07:24:46;20.80;94.80
35541;DHT22;21650;48.840;9.162;2023-07-13T07:27:11;20.80;94.20
35541;DHT22;21650;48.840;9.162;2023-07-13T07:29:37;20.60;94.00
35541;DHT22;21650;48.840;9.162;2023-07-13T07:32:03;20.70;94.50
35541;DHT22;21650;48.840;9.162;2023-07-13T07:34:30;20.90;94.80
35541;DHT22;21650;48.840;9.162;2023-07-13T07:37:01;20.90;93.70
35541;DHT22;21650;48.840;9.162;2023-07-13T07:39:27;20.90;92.40
35541;DHT22;21650;48.840;9.162;2023-07-13T07:41:52;21.00;94.10
35541;DHT22;21650;48.840;9.162;2023-07-13T07:44:18;20.90;93.20
35541;DHT22;21650;48.840;9.162;2023-07-13T07:46:44;21.00;93.40
35541;DHT22;21650;48.840;9.162;2023-07-13T07:49:09;20.90;92.30
35541;DHT22;21650;48.840;9.162;2023-07-13T07:51:36;20.90;92.20
35541;DHT22;21650;48.840;9.162;2023-07-13T07:54:01;21.00;92.80
35541;DHT22;21650;48.840;9.162;2023-07-13T07:56:27;21.10;91.90
35541;DHT22;21650;48.840;9.162;2023-07-13T07:58:53;21.00;92.50
35541;DHT22;21650;48.840;9.162;2023-07-13T08:01:19;21.10;92.70
35541;DHT22;21650;48.840;9.162;2023-07-13T08:03:44;21.40;92.10
35541;DHT22;21650;48.840;9.162;2023-07-13T08:06:10;21.40;91.30
35541;DHT22;21650;48.840;9.162;2023-07-13T08:08:36;21.30;91.10
35541;DHT22;21650;48.840;9.162;2023-07-13T08:11:08;21.30;91.40
35541;DHT22;21650;48.840;9.162;2023-07-13T08:13:34;21.40;92.10
35541;DHT22;21650;48.840;9.162;2023-07-13T08:16:00;21.50;90.20
35541;DHT22;21650;48.840;9.162;2023-07-13T08:18:26;21.50;90.40
35541;DHT22;21650;48.840;9.162;2023-07-13T08:20:55;21.60;89.60
35541;DHT22;21650;48.840;9.162;2023-07-13T08:23:22;21.70;90.20
35541;DHT22;21650;48.840;9.162;2023-07-13T08:25:52;21.80;87.90
35541;DHT22;21650;48.840;9.162;2023-07-13T08:28:22;22.20;88.60
35541;DHT22;21650;48.840;9.162;2023-07-13T08:30:48;22.20;87.50
35541;DHT22;21650;48.840;9.162;2023-07-13T08:33:15;22.60;87.90
35541;DHT22;21650;48.840;9.162;2023-07-13T08:35:41;23.10;88.00
35541;DHT22;21650;48.840;9.162;2023-07-13T08:38:07;23.60;86.80
35541;DHT22;21650;48.840;9.162;2023-07-13T08:40:33;23.80;84.70
35541;DHT22;21650;48.840;9.162;2023-07-13T08:43:00;24.00;83.80
35541;DHT22;21650;48.840;9.162;2023-07-13T08:48:13;24.40;83.80
35541;DHT22;21650;48.840;9.162;2023-07-13T08:53:15;24.50;81.90
35541;DHT22;21650;48.840;9.162;2023-07-13T08:55:42;24.10;81.90
35541;DHT22;21650;48.840;9.162;2023-07-13T08:58:12;24.70;81.50
35541;DHT22;21650;48.840;9.162;2023-07-13T09:01:16;24.90;80.10
35541;DHT22;21650;48.840;9.162;2023-07-13T09:06:34;26.00;79.60
35541;DHT22;21650;48.840;9.162;2023-07-13T09:09:18;25.50;79.50
35541;DHT22;21650;48.840;9.162;2023-07-13T09:11:50;25.70;79.30
35541;DHT22;21650;48.840;9.162;2023-07-13T09:16:55;25.30;74.70
35541;DHT22;21650;48.840;9.162;2023-07-13T09:19:27;25.60;81.60
35541;DHT22;21650;48.840;9.162;2023-07-13T09:21:54;25.70;76.90
35541;DHT22;21650;48.840;9.162;2023-07-13T09:24:51;25.90;80.30
35541;DHT22;21650;48.840;9.162;2023-07-13T09:27:21;25.50;76.90
35541;DHT22;21650;48.840;9.162;2023-07-13T09:32:43;24.30;78.90
35541;DHT22;21650;48.840;9.162;2023-07-13T09:35:18;24.50;79.30
35541;DHT22;21650;48.840;9.162;2023-07-13T09:37:45;23.70;78.40
35541;DHT22;21650;48.840;9.162;2023-07-13T09:40:22;23.90;80.20
35541;DHT22;21650;48.840;9.162;2023-07-13T09:42:52;24.60;80.60
35541;DHT22;21650;48.840;9.162;2023-07-13T09:45:28;24.50;78.40
35541;DHT22;21650;48.840;9.162;2023-07-13T09:48:00;25.00;77.50
35541;DHT22;21650;48.840;9.162;2023-07-13T09:50:28;24.80;76.50
35541;DHT22;21650;48.840;9.162;2023-07-13T09:52:54;25.40;79.30
35541;DHT22;21650;48.840;9.162;2023-07-13T09:55:32;26.10;79.30
35541;DHT22;21650;48.840;9.162;2023-07-13T10:00:44;26.10;77.50
35541;DHT22;21650;48.840;9.162;2023-07-13T10:03:21;26.50;76.40
35541;DHT22;21650;48.840;9.162;2023-07-13T10:05:50;26.60;75.80
35541;DHT22;21650;48.840;9.162;2023-07-13T10:08:27;27.00;75.80
35541;DHT22;21650;48.840;9.162;2023-07-13T10:11:09;27.30;77.70
35541;DHT22;21650;48.840;9.162;2023-07-13T10:13:37;26.90;73.60
35541;DHT22;21650;48.840;9.162;2023-07-13T10:16:07;26.30;73.20
35541;DHT22;21650;48.840;9.162;2023-07-13T10:18:53;25.90;75.40
35541;DHT22;21650;48.840;9.162;2023-07-13T10:21:22;25.60;75.50
35541;DHT22;21650;48.840;9.162;2023-07-13T10:23:54;25.70;74.30
35541;DHT22;21650;48.840;9.162;2023-07-13T10:26:31;25.60;75.60
35541;DHT22;21650;48.840;9.162;2023-07-13T10:29:01;25.50;77.00
35541;DHT22;21650;48.840;9.162;2023-07-13T10:31:27;25.40;77.00
35541;DHT22;21650;48.840;9.162;2023-07-13T10:33:53;25.40;75.90
35541;DHT22;21650;48.840;9.162;2023-07-13T10:36:35;25.10;73.50
35541;DHT22;21650;48.840;9.162;2023-07-13T10:39:05;24.80;75.50
35541;DHT22;21650;48.840;9.162;2023-07-13T10:41:35;25.10;82.30
35541;DHT22;21650;48.840;9.162;2023-07-13T10:44:04;25.60;79.40
35541;DHT22;21650;48.840;9.162;2023-07-13T10:46:32;25.60;79.10
35541;DHT22;21650;48.840;9.162;2023-07-13T10:49:05;25.60;75.30
35541;DHT22;21650;48.840;9.162;2023-07-13T10:51:33;25.30;77.60
35541;DHT22;21650;48.840;9.162;2023-07-13T10:54:20;25.30;77.20
35541;DHT22;21650;48.840;9.162;2023-07-13T10:56:51;25.10;75.70
35541;DHT22;21650;48.840;9.162;2023-07-13T10:59:26;24.90;77.40
35541;DHT22;21650;48.840;9.162;2023-07-13T11:02:10;25.40;75.80
35541;DHT22;21650;48.840;9.162;2023-07-13T11:04:47;25.60;75.20
35541;DHT22;21650;48.840;9.162;2023-07-13T11:07:28;25.80;75.50
35541;DHT22;21650;48.840;9.162;2023-07-13T11:09:56;26.20;77.20
35541;DHT22;21650;48.840;9.162;2023-07-13T11:17:47;26.20;73.00
35541;DHT22;21650;48.840;9.162;2023-07-13T11:22:51;25.60;70.10
35541;DHT22;21650;48.840;9.162;2023-07-13T11:33:25;25.60;73.30
35541;DHT22;21650;48.840;9.162;2023-07-13T11:38:34;25.40;71.20
35541;DHT22;21650;48.840;9.162;2023-07-13T11:41:05;25.90;74.50
35541;DHT22;21650;48.840;9.162;2023-07-13T11:43:31;26.20;73.40
35541;DHT22;21650;48.840;9.162;2023-07-13T11:46:11;26.00;71.40
35541;DHT22;21650;48.840;9.162;2023-07-13T11:48:37;25.60;70.40
35541;DHT22;21650;48.840;9.162;2023-07-13T11:51:04;25.80;73.40
35541;DHT22;21650;48.840;9.162;2023-07-13T11:53:44;26.30;71.80
35541;DHT22;21650;48.840;9.162;2023-07-13T11:56:10;26.40;74.90
35541;DHT22;21650;48.840;9.162;2023-07-13T11:58:36;26.40;73.40
35541;DHT22;21650;48.840;9.162;2023-07-13T12:01:03;26.30;70.60
35541;DHT22;21650;48.840;9.162;2023-07-13T12:03:33;25.70;71.00
35541;DHT22;21650;48.840;9.162;2023-07-13T12:06:06;25.70;71.60
35541;DHT22;21650;48.840;9.162;2023-07-13T12:08:43;25.70;72.60
35541;DHT22;21650;48.840;9.162;2023-07-13T12:11:16;26.00;72.40
35541;DHT22;21650;48.840;9.162;2023-07-13T12:13:44;26.50;71.40
35541;DHT22;21650;48.840;9.162;2023-07-13T12:16:31;26.10;69.60
35541;DHT22;21650;48.840;9.162;2023-07-13T12:18:59;25.60;70.40
35541;DHT22;21650;48.840;9.162;2023-07-13T12:21:34;25.90;69.20
35541;DHT22;21650;48.840;9.162;2023-07-13T12:24:01;26.20;67.30
35541;DHT22;21650;48.840;9.162;2023-07-13T12:26:30;26.40;71.40
35541;DHT22;21650;48.840;9.162;2023-07-13T12:28:59;25.80;65.80
35541;DHT22;21650;48.840;9.162;2023-07-13T12:34:01;25.50;67.30
35541;DHT22;21650;48.840;9.162;2023-07-13T12:36:29;25.60;68.70
35541;DHT22;21650;48.840;9.162;2023-07-13T12:39:00;25.90;68.50
35541;DHT22;21650;48.840;9.162;2023-07-13T12:41:29;26.20;68.70
35541;DHT22;21650;48.840;9.162;2023-07-13T12:43:55;26.60;68.10
35541;DHT22;21650;48.840;9.162;2023-07-13T12:46:24;27.10;67.30
35541;DHT22;21650;48.840;9.162;2023-07-13T12:48:54;27.60;68.10
35541;DHT22;21650;48.840;9.162;2023-07-13T12:51:25;27.10;64.20
35541;DHT22;21650;48.840;9.162;2023-07-13T12:54:18;27.10;64.10
35541;DHT22;21650;48.840;9.162;2023-07-13T12:56:45;27.10;64.90
35541;DHT22;21650;48.840;9.162;2023-07-13T12:59:20;27.20;66.40
35541;DHT22;21650;48.840;9.162;2023-07-13T13:01:47;27.30;65.40
35541;DHT22;21650;48.840;9.162;2023-07-13T13:04:15;27.50;61.50
35541;DHT22;21650;48.840;9.162;2023-07-13T13:06:41;27.10;63.40
35541;DHT22;21650;48.840;9.162;2023-07-13T13:09:13;26.90;61.80
35541;DHT22;21650;48.840;9.162;2023-07-13T13:11:39;27.20;63.50
35541;DHT22;21650;48.840;9.162;2023-07-13T13:14:06;27.40;61.80
35541;DHT22;21650;48.840;9.162;2023-07-13T13:16:47;27.20;61.10
35541;DHT22;21650;48.840;9.162;2023-07-13T13:19:24;27.50;62.60
35541;DHT22;21650;48.840;9.162;2023-07-13T13:21:50;27.60;63.60
35541;DHT22;21650;48.840;9.162;2023-07-13T13:24:22;28.00;63.50
35541;DHT22;21650;48.840;9.162;2023-07-13T13:26:50;27.70;60.70
35541;DHT22;21650;48.840;9.162;2023-07-13T13:29:19;27.40;60.30
35541;DHT22;21650;48.840;9.162;2023-07-13T13:31:46;27.80;63.70
35541;DHT22;21650;48.840;9.162;2023-07-13T13:34:14;27.60;60.70
35541;DHT22;21650;48.840;9.162;2023-07-13T13:36:41;26.90;62.30
35541;DHT22;21650;48.840;9.162;2023-07-13T13:39:24;27.10;61.60
35541;DHT22;21650;48.840;9.162;2023-07-13T13:41:52;27.10;62.40
35541;DHT22;21650;48.840;9.162;2023-07-13T13:44:19;27.40;60.30
35541;DHT22;21650;48.840;9.162;2023-07-13T13:46:47;27.30;62.20
35541;DHT22;21650;48.840;9.162;2023-07-13T13:49:24;27.80;61.10
35541;DHT22;21650;48.840;9.162;2023-07-13T13:51:51;27.90;60.60
35541;DHT22;21650;48.840;9.162;2023-07-13T13:54:18;28.00;60.50
35541;DHT22;21650;48.840;9.162;2023-07-13T13:56:46;28.10;60.30
35541;DHT22;21650;48.840;9.162;2023-07-13T13:59:12;28.10;62.70
35541;DHT22;21650;48.840;9.162;2023-07-13T14:01:39;28.30;59.40
35541;DHT22;21650;48.840;9.162;2023-07-13T14:04:06;28.10;60.50
35541;DHT22;21650;48.840;9.162;2023-07-13T14:06:33;28.20;60.00
35541;DHT22;21650;48.840;9.162;2023-07-13T14:08:59;28.30;59.60
35541;DHT22;21650;48.840;9.162;2023-07-13T14:11:25;28.00;59.80
35541;DHT22;21650;48.840;9.162;2023-07-13T14:13:54;28.10;58.60
35541;DHT22;21650;48.840;9.162;2023-07-13T14:16:22;28.10;60.90
35541;DHT22;21650;48.840;9.162;2023-07-13T14:18:53;28.30;58.60
35541;DHT22;21650;48.840;9.162;2023-07-13T14:21:21;28.30;59.30
35541;DHT22;21650;48.840;9.162;2023-07-13T14:23:48;28.40;57.90
35541;DHT22;21650;48.840;9.162;2023-07-13T14:26:19;28.00;59.10
35541;DHT22;21650;48.840;9.162;2023-07-13T14:28:50;27.70;57.10
35541;DHT22;21650;48.840;9.162;2023-07-13T14:31:17;27.60;57.40
35541;DHT22;21650;48.840;9.162;2023-07-13T14:33:44;27.80;57.60
35541;DHT22;21650;48.840;9.162;2023-07-13T14:36:32;28.20;58.60
35541;DHT22;21650;48.840;9.162;2023-07-13T14:39:01;28.10;57.70
35541;DHT22;21650;48.840;9.162;2023-07-13T14:41:31;28.00;58.90
35541;DHT22;21650;48.840;9.162;2023-07-13T14:43:57;27.70;58.50
35541;DHT22;21650;48.840;9.162;2023-07-13T14:48:51;27.30;59.80
35541;DHT22;21650;48.840;9.162;2023-07-13T14:51:16;27.40;59.40
35541;DHT22;21650;48.840;9.162;2023-07-13T14:53:42;27.70;59.00
35541;DHT22;21650;48.840;9.162;2023-07-13T14:56:11;27.80;60.20
35541;DHT22;21650;48.840;9.162;2023-07-13T14:58:37;27.80;59.50
35541;DHT22;21650;48.840;9.162;2023-07-13T15:01:14;27.70;59.50
35541;DHT22;21650;48.840;9.162;2023-07-13T15:03:48;27.70;59.60
35541;DHT22;21650;48.840;9.162;2023-07-13T15:06:14;27.70;59.10
35541;DHT22;21650;48.840;9.162;2023-07-13T15:08:40;28.00;60.30
35541;DHT22;21650;48.840;9.162;2023-07-13T15:11:07;27.80;58.80
35541;DHT22;21650;48.840;9.162;2023-07-13T15:13:33;27.80;60.80
35541;DHT22;21650;48.840;9.162;2023-07-13T15:16:00;27.70;59.40
35541;DHT22;21650;48.840;9.162;2023-07-13T15:18:26;27.50;59.40
35541;DHT22;21650;48.840;9.162;2023-07-13T15:20:53;27.10;59.00
35541;DHT22;21650;48.840;9.162;2023-07-13T15:23:21;27.40;58.80
35541;DHT22;21650;48.840;9.162;2023-07-13T15:25:48;27.60;59.00
35541;DHT22;21650;48.840;9.162;2023-07-13T15:28:14;27.70;60.20
35541;DHT22;21650;48.840;9.162;2023-07-13T15:33:17;28.10;60.10
35541;DHT22;21650;48.840;9.162;2023-07-13T15:35:44;27.80;60.20
35541;DHT22;21650;48.840;9.162;2023-07-13T15:38:21;26.90;59.20
35541;DHT22;21650;48.840;9.162;2023-07-13T15:40:50;26.80;59.80
35541;DHT22;21650;48.840;9.162;2023-07-13T15:43:17;27.30;60.30
35541;DHT22;21650;48.840;9.162;2023-07-13T15:45:44;27.50;59.60
35541;DHT22;21650;48.840;9.162;2023-07-13T15:48:24;27.60;58.40
35541;DHT22;21650;48.840;9.162;2023-07-13T15:50:54;27.60;59.30
35541;DHT22;21650;48.840;9.162;2023-07-13T15:53:29;27.60;58.20
35541;DHT22;21650;48.840;9.162;2023-07-13T15:55:55;27.70;60.40
35541;DHT22;21650;48.840;9.162;2023-07-13T15:58:21;27.80;58.30
35541;DHT22;21650;48.840;9.162;2023-07-13T16:00:47;27.70;59.10
35541;DHT22;21650;48.840;9.162;2023-07-13T16:03:17;27.90;60.50
35541;DHT22;21650;48.840;9.162;2023-07-13T16:05:44;27.40;58.70
35541;DHT22;21650;48.840;9.162;2023-07-13T16:10:47;28.00;59.70
35541;DHT22;21650;48.840;9.162;2023-07-13T16:13:17;28.10;59.60
35541;DHT22;21650;48.840;9.162;2023-07-13T16:15:44;28.10;58.70
35541;DHT22;21650;48.840;9.162;2023-07-13T16:18:11;28.20;57.90
35541;DHT22;21650;48.840;9.162;2023-07-13T16:20:42;28.20;57.10
35541;DHT22;21650;48.840;9.162;2023-07-13T16:23:09;27.80;58.00
35541;DHT22;21650;48.840;9.162;2023-07-13T16:25:37;27.70;58.40